sim
Sign-in with your pilot id or email,
or register
Callsign
Passwort

Schedule Details

Flight Number: OEO6036
Departure: Berlin Tegel Airport (EDDT) at 08:25
Arrival: Fuerteventura Airport (GCFV) at 13:55

Weather Information
Getting current METAR information for EDDT 181950Z 05004KT 010V070 CAVOK 16/01 Q1030 NOSIG
Getting current METAR information for GCFV 182000Z 36016KT 9999 FEW045 18/11 Q1019

Schedule Frequency

Route Map